WELCOME TO Fly Ecuador Virtual

Fly Ecuador Virtual es una organización creada con el fin de brindar una plataforma que permita a los pilotos virtuales, principalmente ecuatorianos, tener un lugar donde registrar sus horas de vuelo, sus certificados de conocimiento adquiridos, las rutas que han volado y los destinos que han visitado. Así mismo, se busca ayudar a todos los pilotos a expandir su conocimiento sobre el mundo de la aviación real y virtual por medio de publicaciones, foros y cursos en línea.
A diferencia de las aerolíneas virtuales tradicionales, Fly Ecuador Virtual no simula las operaciones de una aerolínea del mundo real en específico. Un miembro de Fly Ecuador Virtual tiene toda la libertad de volar cualquier aeronave que opere en el espacio aéreo ecuatoriano real, en cualquier ruta, sea esta nacional o internacional, IFR o VFR, aeronaves monomotor, multimotor o helicópteros. Todo esto con el objetivo de expandir las operaciones virtuales dentro del espacio aéreo ecuatoriano, creando una comunidad en la que se compartan conocimientos y experiencias que beneficien a todos sus integrantes.
El crecimiento de Fly Ecuador Virtual depende de la participación conjunta de todos sus miembros, por este motivo se incentiva la participación en línea a través de los diferentes medios descritos más adelante en este sitio web.

STATISTICS

Pilots 61
Total hours: 4366.91
Flights total 1578

LATEST FLIGHTS

CallsignPilotDepartureArrivalDateFlight Time
ECU024Arturo CarvajalSEQMSERO14-01-20180.84
ECU074Emilio MayhuaSPQTSPJC12-01-20181.45
ECU074Emilio MayhuaSPCLSPQT12-01-20180.83
ECU074Emilio MayhuaSPZOSPCL11-01-20181.10
ECU074Emilio MayhuaSPJCSPZO11-01-20180.97

NEWEST PILOTS

PilotJoined
ECU079-Vicente Torres13-07-2017
ECU077-Fernando Flores Valarezo06-07-2017
ECU078-Ricardo Guzman05-07-2017
ECU075-FREDDY RIVERA29-06-2017
ECU074-Emilio Mayhua28-06-2017

FUTURE EVENTS & METARS

EventDate
METAR
SEGU - José Joaquín de Olmedo International Airport, Guayaquil, ECU
Distance from station: N 0mi, 0km
Updated: Fri, 19-Jan-2018 8:00am PST
Mostly Cloudy
Mostly Cloudy
 Wind from ESE
Wind: ESE 6 mph , 9 km/h
Temperature: 84°F , 29°C
Heat Index: 87°F , 31°C
Dew Point: 68°F , 20°C
Humidity: 58%
Barometer: 29.85 inHg , 1011 hPa
Clouds: Mostly Cloudy
Visibility: 6 miles , 10 km
Cloud details: Few Clouds 2300 ft
Mostly Cloudy 10000 ft
2018/01/19 16:00 SEGU 191600Z 12005KT 070V170 9999 FEW023 BKN100 29/20 Q1011 NOSIG RMK A2987
 
SEQM - Aeropuerto Internacional Mariscal Sucre, ECU
Distance from station: NE 120mi, 200km
Updated: Fri, 19-Jan-2018 8:00am PST
Mostly Cloudy
Mostly Cloudy
 Wind from S
Wind: S 5 mph , 7 km/h
Temperature: 64°F , 18°C
Dew Point: 48°F , 9°C
Humidity: 56%
Barometer: 30.27 inHg , 1025 hPa
Clouds: Mostly Cloudy
Visibility: 6 miles , 10 km
Cloud details: Partly Cloudy 3000 ft
Mostly Cloudy 9000 ft
2018/01/19 16:00 SEQM 191600Z 18004KT 9999 SCT030 BKN090 18/09 Q1025 NOSIG RMK A3029
 
SECU - Mariscal Lamar Airpor, ECU
Distance from station: ENE 80mi, 120km
Updated: Fri, 19-Jan-2018 8:00am PST
Mostly Cloudy
Mostly Cloudy
 Wind from NE
Wind: NE 6 mph , 9 km/h
Temperature: 70°F , 21°C
Dew Point: 52°F , 11°C
Humidity: 53%
Barometer: 30.3 inHg , 1026 hPa
Clouds: Mostly Cloudy
Visibility: 6 miles , 10 km
Cloud details: Mostly Cloudy 4000 ft
2018/01/19 16:00 SECU 191600Z 05005KT 9999 BKN040 21/11 Q1026
 
SELT - Cotopaxi International Airport, ECU
Distance from station: NW 21mi, 34km
Updated: Fri, 19-Jan-2018 8:00am PST
Mostly Cloudy
Mostly Cloudy
 Wind from S
Wind: S 14 mph , 22 km/h
Temperature: 57°F , 14°C
Dew Point: 50°F , 10°C
Humidity: 77%
Barometer: 30.42 inHg , 1030 hPa
Clouds: Mostly Cloudy
Visibility: 6 miles , 10 km
Cloud details: Mostly Cloudy 3000 ft
Mostly Cloudy 10000 ft
2018/01/19 16:00 SELT 191600Z 18012KT 9999 BKN030 BKN100 14/10 Q1030
 
SEMT - Eloy Alfaro International Airport, ECU
Distance from station: SSE 70mi, 100km
Updated: Fri, 19-Jan-2018 8:00am PST
Partly Cloudy
Partly Cloudy
 Wind from NNW
Wind: NNW 9 mph , 15 km/h
Temperature: 82°F , 28°C
Heat Index: 87°F , 31°C
Dew Point: 73°F , 23°C
Humidity: 74%
Barometer: 29.88 inHg , 1012 hPa
Clouds: Partly Cloudy
Visibility: 6 miles , 10 km
Cloud details: Partly Cloudy 2000 ft
Partly Cloudy 12000 ft
2018/01/19 16:00 SEMT 191600Z 33008KT 9999 SCT020 SCT120 28/23 Q1012 RMK A2989

Metar display script from Saratoga-Weather.org

TWEETS

NOTAMS

NOTAMDate